Time;durP1;ratioP1;P1;durP2;ratioP2;P2;SDS_P1;SDS_P2;PMS_P1;PMS_P2;Temp;Humidity;BMP_temperature;BMP_pressure;BME280_temperature;BME280_humidity;BME280_pressure;Samples;Min_cycle;Max_cycle;Signal;HPM_P1;HPM_P2
2023/06/15 00:01:33;;;;;;;5.57;4.90;;;18.20;1.00;;;;;;5095872;28;20461;-66
2023/06/15 00:04:00;;;;;;;5.10;3.97;;;18.20;1.00;;;;;;5095817;28;20453;-66
2023/06/15 00:06:28;;;;;;;7.63;5.00;;;18.10;1.00;;;;;;5095475;28;20457;-66
2023/06/15 00:08:55;;;;;;;9.90;3.80;;;18.10;1.00;;;;;;5096034;28;20530;-66
2023/06/15 00:11:24;;;;;;;6.00;3.57;;;18.10;1.00;;;;;;5095304;28;20477;-66
2023/06/15 00:13:51;;;;;;;8.40;4.13;;;18.00;1.00;;;;;;5095737;28;20452;-66
2023/06/15 00:16:18;;;;;;;6.57;3.80;;;18.00;1.00;;;;;;5095538;28;20552;-66
2023/06/15 00:18:47;;;;;;;5.87;3.63;;;18.00;1.00;;;;;;5095728;28;20485;-66
2023/06/15 00:21:16;;;;;;;17.47;11.60;;;17.90;1.00;;;;;;5095282;28;20464;-66
2023/06/15 00:23:43;;;;;;;9.50;4.77;;;17.90;1.00;;;;;;5095814;28;20453;-66
2023/06/15 00:26:09;;;;;;;5.43;3.63;;;17.80;1.00;;;;;;5095482;28;20458;-66
2023/06/15 00:28:38;;;;;;;8.43;3.60;;;17.80;1.00;;;;;;5095319;28;20459;-66
2023/06/15 00:31:04;;;;;;;4.60;3.40;;;17.80;1.00;;;;;;5095361;28;20491;-66
2023/06/15 00:33:31;;;;;;;4.10;3.60;;;17.70;1.00;;;;;;5094996;28;20463;-66
2023/06/15 00:35:59;;;;;;;11.73;8.50;;;17.70;1.00;;;;;;5094978;28;20453;-66
2023/06/15 00:38:26;;;;;;;6.83;4.00;;;17.70;1.00;;;;;;5095187;28;20552;-66
2023/06/15 00:40:53;;;;;;;7.80;4.60;;;17.60;1.00;;;;;;5094967;28;20460;-66
2023/06/15 00:43:20;;;;;;;4.00;3.33;;;17.60;1.00;;;;;;5095106;28;20552;-66
2023/06/15 00:45:48;;;;;;;4.47;3.97;;;17.50;1.00;;;;;;5094953;28;20548;-66
2023/06/15 00:48:16;;;;;;;5.77;3.73;;;17.50;1.00;;;;;;5094814;28;20457;-66
2023/06/15 00:50:43;;;;;;;5.00;3.60;;;17.50;1.00;;;;;;5095003;28;20796;-66
2023/06/15 00:53:10;;;;;;;3.67;3.37;;;17.50;1.00;;;;;;5094636;28;20457;-66
2023/06/15 00:55:40;;;;;;;6.70;4.20;;;17.40;1.00;;;;;;5094958;28;20460;-66
2023/06/15 00:58:07;;;;;;;6.47;3.90;;;17.40;1.00;;;;;;5095132;28;20928;-67
2023/06/15 01:00:37;;;;;;;5.00;3.93;;;17.40;1.00;;;;;;5094615;28;20449;-66
2023/06/15 01:03:06;;;;;;;5.90;4.23;;;17.30;1.00;;;;;;5095023;28;20460;-66
2023/06/15 01:05:34;;;;;;;7.17;4.20;;;17.30;1.00;;;;;;5094838;28;20463;-66
2023/06/15 01:08:04;;;;;;;8.30;4.03;;;17.30;1.00;;;;;;5094980;28;20457;-66
2023/06/15 01:10:32;;;;;;;6.80;3.60;;;17.30;1.00;;;;;;5094640;28;20485;-66
2023/06/15 01:13:00;;;;;;;4.60;3.90;;;17.20;1.00;;;;;;5094598;28;20481;-66
2023/06/15 01:15:27;;;;;;;8.10;4.47;;;17.20;1.00;;;;;;5094886;28;20464;-66
2023/06/15 01:17:58;;;;;;;9.50;4.30;;;17.10;1.00;;;;;;5094427;28;20457;-66
2023/06/15 01:20:29;;;;;;;4.17;3.63;;;17.10;1.00;;;;;;5094900;28;20460;-66
2023/06/15 01:23:10;;;;;;;6.67;4.20;;;17.00;1.00;;;;;;5094383;28;20442;-66
2023/06/15 01:25:41;;;;;;;6.97;4.20;;;17.00;1.00;;;;;;5094123;28;20449;-66
2023/06/15 01:28:11;;;;;;;4.03;3.67;;;16.90;1.00;;;;;;5094413;28;20522;-66
2023/06/15 01:30:43;;;;;;;4.23;3.50;;;16.80;1.00;;;;;;5094057;28;20481;-66
2023/06/15 01:33:11;;;;;;;6.10;3.90;;;16.80;1.00;;;;;;5094447;28;20528;-66
2023/06/15 01:35:38;;;;;;;5.77;3.20;;;16.70;1.00;;;;;;5093958;28;20458;-66
2023/06/15 01:38:05;;;;;;;4.97;4.20;;;16.60;1.00;;;;;;5094210;28;20910;-66
2023/06/15 01:40:34;;;;;;;5.00;3.80;;;16.60;1.00;;;;;;5094247;28;20460;-66
2023/06/15 01:43:02;;;;;;;6.10;4.03;;;16.50;1.00;;;;;;5093803;28;20500;-66
2023/06/15 01:45:31;;;;;;;8.57;4.77;;;16.40;1.00;;;;;;5093989;28;20548;-67
2023/06/15 01:47:58;;;;;;;5.83;4.30;;;16.40;1.00;;;;;;5097985;28;20461;-66
2023/06/15 01:50:26;;;;;;;7.03;4.60;;;16.40;1.00;;;;;;5098256;28;20799;-66
2023/06/15 01:52:53;;;;;;;7.57;4.40;;;16.30;1.00;;;;;;5097832;28;20463;-66
2023/06/15 01:55:20;;;;;;;4.70;4.20;;;16.30;1.00;;;;;;5097750;28;20462;-66
2023/06/15 01:57:47;;;;;;;3.87;3.57;;;16.30;1.00;;;;;;5097880;28;20806;-66
2023/06/15 02:00:15;;;;;;;4.77;4.00;;;16.20;1.00;;;;;;5097984;28;20454;-66
2023/06/15 02:02:43;;;;;;;4.30;3.50;;;16.20;1.00;;;;;;5097707;28;20609;-66
2023/06/15 02:05:11;;;;;;;4.87;3.90;;;16.20;1.00;;;;;;5097903;28;20453;-66
2023/06/15 02:07:37;;;;;;;4.60;3.63;;;16.10;1.00;;;;;;5098072;28;20890;-66
2023/06/15 02:10:05;;;;;;;5.47;4.00;;;16.10;1.00;;;;;;5097726;28;20464;-66
2023/06/15 02:12:32;;;;;;;4.63;4.10;;;16.00;1.00;;;;;;5097496;28;20541;-66
2023/06/15 02:15:02;;;;;;;6.47;3.37;;;16.00;1.00;;;;;;5097827;28;20453;-67
2023/06/15 02:17:30;;;;;;;8.13;4.60;;;15.90;1.00;;;;;;5097767;28;20459;-67
2023/06/15 02:19:58;;;;;;;4.83;4.37;;;15.90;1.00;;;;;;5097560;28;20928;-66
2023/06/15 02:22:25;;;;;;;4.53;3.97;;;15.90;1.00;;;;;;5097497;28;20457;-66
2023/06/15 02:24:52;;;;;;;6.43;3.93;;;15.90;1.00;;;;;;5097557;28;20465;-66
2023/06/15 02:27:19;;;;;;;4.93;3.70;;;15.80;1.00;;;;;;5097417;28;20453;-67
2023/06/15 02:29:46;;;;;;;4.43;3.87;;;15.80;1.00;;;;;;5097554;28;20811;-66
2023/06/15 02:32:34;;;;;;;4.50;4.10;;;15.80;1.00;;;;;;5097083;28;20478;-67
2023/06/15 02:35:05;;;;;;;6.07;4.67;;;15.80;1.00;;;;;;5097194;28;20894;-67
2023/06/15 02:37:31;;;;;;;7.43;4.60;;;15.80;1.00;;;;;;5097056;28;20442;-67
2023/06/15 02:39:58;;;;;;;5.50;4.03;;;15.70;1.00;;;;;;5097154;28;20461;-67
2023/06/15 02:42:25;;;;;;;6.03;4.00;;;15.70;1.00;;;;;;5097327;28;20773;-67
2023/06/15 02:44:52;;;;;;;7.23;4.30;;;15.70;1.00;;;;;;5097181;28;20552;-66
2023/06/15 02:47:19;;;;;;;6.93;4.40;;;15.70;1.00;;;;;;5099384;28;20536;-67
2023/06/15 02:49:46;;;;;;;5.20;3.93;;;15.70;1.00;;;;;;5098573;28;20548;-67
2023/06/15 02:52:14;;;;;;;5.03;4.13;;;15.70;1.00;;;;;;5098963;28;20793;-67
2023/06/15 02:54:41;;;;;;;5.83;4.37;;;15.70;1.00;;;;;;5099489;28;20463;-67
2023/06/15 02:57:08;;;;;;;4.97;3.87;;;15.70;1.00;;;;;;5098829;28;20560;-67
2023/06/15 02:59:36;;;;;;;8.97;3.83;;;15.70;1.00;;;;;;5098303;28;20504;-67
2023/06/15 03:02:04;;;;;;;6.07;3.87;;;15.70;1.00;;;;;;5098430;28;20796;-67
2023/06/15 03:04:32;;;;;;;4.33;3.93;;;15.70;1.00;;;;;;5098614;28;20508;-67
2023/06/15 03:06:59;;;;;;;7.33;4.60;;;15.70;1.00;;;;;;5098667;28;20460;-67
2023/06/15 03:09:28;;;;;;;4.27;3.70;;;15.70;1.00;;;;;;5098064;28;20544;-67
2023/06/15 03:11:54;;;;;;;4.17;3.80;;;15.70;1.00;;;;;;5098653;28;20928;-67
2023/06/15 03:14:21;;;;;;;7.53;4.40;;;15.70;1.00;;;;;;5098484;28;20441;-67
2023/06/15 03:16:48;;;;;;;4.80;4.10;;;15.70;1.00;;;;;;5098652;28;20457;-66
2023/06/15 03:19:16;;;;;;;4.17;3.87;;;15.70;1.00;;;;;;5099084;28;20588;-67
2023/06/15 03:21:43;;;;;;;5.20;4.67;;;15.70;1.00;;;;;;5099113;28;20532;-67
2023/06/15 03:24:10;;;;;;;6.10;4.27;;;15.80;1.00;;;;;;5098904;28;20449;-67
2023/06/15 03:26:40;;;;;;;6.37;3.80;;;15.70;1.00;;;;;;5098534;28;20453;-67
2023/06/15 03:29:07;;;;;;;4.60;4.03;;;15.70;1.00;;;;;;5098655;28;20463;-67
2023/06/15 03:31:40;;;;;;;5.93;4.17;;;15.70;1.00;;;;;;5097941;28;20480;-67
2023/06/15 03:34:07;;;;;;;4.67;4.03;;;15.70;4.70;;;;;;5098717;28;20441;-67
2023/06/15 03:36:35;;;;;;;6.30;4.00;;;15.70;96.80;;;;;;5098445;28;20457;-67
2023/06/15 03:39:03;;;;;;;4.33;3.90;;;15.70;95.40;;;;;;5099495;28;20457;-67
2023/06/15 03:41:30;;;;;;;5.83;4.80;;;15.70;93.70;;;;;;5099440;28;20457;-67
2023/06/15 03:43:59;;;;;;;8.67;3.67;;;15.60;90.40;;;;;;5099044;28;20457;-67
2023/06/15 03:46:26;;;;;;;4.47;4.07;;;15.60;99.90;;;;;;5098396;28;20489;-66
2023/06/15 03:48:53;;;;;;;5.03;4.30;;;15.60;99.90;;;;;;5099052;28;20457;-67
2023/06/15 03:51:20;;;;;;;5.40;4.27;;;15.60;99.90;;;;;;5098335;28;20993;-67
2023/06/15 03:53:47;;;;;;;4.57;4.13;;;15.50;99.90;;;;;;5097222;28;20952;-67
2023/06/15 03:56:14;;;;;;;6.00;4.93;;;15.60;99.90;;;;;;5097336;28;20457;-67
2023/06/15 03:58:40;;;;;;;5.03;4.17;;;15.60;99.90;;;;;;5097641;28;20467;-67
2023/06/15 04:01:12;;;;;;;6.40;4.30;;;15.60;99.90;;;;;;5097983;28;20804;-67
2023/06/15 04:03:39;;;;;;;7.20;4.10;;;15.60;99.90;;;;;;5097917;28;20780;-67
2023/06/15 04:06:06;;;;;;;5.30;4.70;;;15.60;99.90;;;;;;5097210;28;20457;-67
2023/06/15 04:08:35;;;;;;;6.47;5.10;;;15.60;99.90;;;;;;5097154;28;20488;-67
2023/06/15 04:11:02;;;;;;;8.83;5.20;;;15.60;99.90;;;;;;5097487;28;20489;-67
2023/06/15 04:13:29;;;;;;;4.90;4.10;;;15.60;99.90;;;;;;5096898;28;20554;-68
2023/06/15 04:15:56;;;;;;;4.53;4.10;;;15.60;99.90;;;;;;5097516;28;20532;-67
2023/06/15 04:18:25;;;;;;;5.10;4.03;;;15.60;99.90;;;;;;5096998;28;20464;-66
2023/06/15 04:20:53;;;;;;;4.60;3.93;;;15.60;1.00;;;;;;5097593;28;20494;-66
2023/06/15 04:23:20;;;;;;;5.70;4.30;;;15.60;1.00;;;;;;5097661;28;20540;-68
2023/06/15 04:25:47;;;;;;;5.33;4.30;;;15.60;1.00;;;;;;5097697;28;20754;-67
2023/06/15 04:28:16;;;;;;;7.77;6.27;;;15.70;1.00;;;;;;5097381;28;20454;-67
2023/06/15 04:30:46;;;;;;;7.63;5.90;;;15.70;1.00;;;;;;5097012;28;20521;-67
2023/06/15 04:33:13;;;;;;;7.47;4.40;;;15.70;1.00;;;;;;5097270;28;20606;-67
2023/06/15 04:35:45;;;;;;;5.40;4.90;;;15.70;1.00;;;;;;5096800;28;20458;-67
2023/06/15 04:38:12;;;;;;;6.10;4.90;;;15.70;99.90;;;;;;5097142;28;20441;-67
2023/06/15 04:40:41;;;;;;;4.53;4.10;;;15.70;1.00;;;;;;5097257;28;20522;-66
2023/06/15 04:43:08;;;;;;;6.97;5.30;;;15.80;99.90;;;;;;5096966;28;20463;-67
2023/06/15 04:45:35;;;;;;;11.97;6.00;;;15.80;99.90;;;;;;5096356;28;20453;-67
2023/06/15 04:48:02;;;;;;;7.20;4.37;;;15.80;99.90;;;;;;5096523;28;20552;-67
2023/06/15 04:50:29;;;;;;;7.20;3.83;;;15.80;99.90;;;;;;5097055;28;20786;-67
2023/06/15 04:52:58;;;;;;;6.60;5.57;;;15.90;39.20;;;;;;5097077;28;20481;-67
2023/06/15 04:55:25;;;;;;;5.40;4.90;;;15.90;1.00;;;;;;5096966;28;20464;-67
2023/06/15 04:57:51;;;;;;;5.67;4.97;;;16.00;1.00;;;;;;5097452;28;20560;-67
2023/06/15 05:00:19;;;;;;;4.93;4.27;;;16.00;1.00;;;;;;5097955;28;20901;-67
2023/06/15 05:02:46;;;;;;;6.73;5.27;;;16.10;1.00;;;;;;5097517;28;20449;-67
2023/06/15 05:05:13;;;;;;;6.83;4.57;;;16.10;1.00;;;;;;5096674;28;20453;-67
2023/06/15 05:07:40;;;;;;;6.33;3.80;;;16.10;1.00;;;;;;5097174;28;20453;-67
2023/06/15 05:10:09;;;;;;;4.23;3.83;;;16.20;1.00;;;;;;5097359;28;20457;-66
2023/06/15 05:12:36;;;;;;;6.80;4.17;;;16.30;1.00;;;;;;5096263;28;20508;-68
2023/06/15 05:15:03;;;;;;;6.67;5.57;;;16.30;1.00;;;;;;5096664;28;20453;-67
2023/06/15 05:17:30;;;;;;;9.43;4.30;;;16.40;1.00;;;;;;5097129;28;20453;-67
2023/06/15 05:19:57;;;;;;;16.40;6.50;;;16.40;1.00;;;;;;5096779;28;20520;-67
2023/06/15 05:22:23;;;;;;;4.87;3.97;;;16.50;99.90;;;;;;5097005;28;20544;-67
2023/06/15 05:24:50;;;;;;;4.90;4.23;;;16.50;1.00;;;;;;5096754;28;20914;-66
2023/06/15 05:27:18;;;;;;;4.17;3.77;;;16.60;1.00;;;;;;5096374;28;20473;-66
2023/06/15 05:29:46;;;;;;;6.17;3.93;;;16.70;99.90;;;;;;5096169;28;20553;-67
2023/06/15 05:32:12;;;;;;;8.33;4.67;;;16.70;1.00;;;;;;5095917;28;20556;-66
2023/06/15 05:34:39;;;;;;;5.90;4.57;;;16.80;1.00;;;;;;5096601;28;20453;-67
2023/06/15 05:37:06;;;;;;;4.73;4.23;;;16.90;1.00;;;;;;5096466;28;20481;-67
2023/06/15 05:39:33;;;;;;;4.73;3.93;;;16.90;1.00;;;;;;5095689;28;20455;-67
2023/06/15 05:42:01;;;;;;;4.63;3.70;;;16.90;99.90;;;;;;5096335;28;20928;-67
2023/06/15 05:44:29;;;;;;;5.40;4.53;;;17.00;99.90;;;;;;5095994;28;20506;-67
2023/06/15 05:46:56;;;;;;;5.47;4.47;;;16.90;99.90;;;;;;5096097;28;20525;-67
2023/06/15 05:49:23;;;;;;;6.50;4.37;;;16.90;99.90;;;;;;5096034;28;20928;-68
2023/06/15 05:51:49;;;;;;;5.10;4.60;;;16.90;99.90;;;;;;5095621;28;20560;-67
2023/06/15 05:54:16;;;;;;;4.90;4.20;;;17.00;1.00;;;;;;5096377;28;20468;-67
2023/06/15 05:56:43;;;;;;;7.40;4.70;;;17.00;99.90;;;;;;5096319;28;20480;-67
2023/06/15 05:59:10;;;;;;;7.60;4.40;;;17.00;99.90;;;;;;5096613;28;20457;-67
2023/06/15 06:01:38;;;;;;;4.70;4.03;;;17.00;74.20;;;;;;5096815;28;20484;-67
2023/06/15 06:04:05;;;;;;;7.43;4.23;;;16.90;87.00;;;;;;5097100;28;20467;-67
2023/06/15 06:06:32;;;;;;;5.67;3.90;;;16.90;99.90;;;;;;5096243;28;20921;-67
2023/06/15 06:08:59;;;;;;;6.30;4.90;;;16.90;99.90;;;;;;5096261;28;20533;-66
2023/06/15 06:11:27;;;;;;;4.57;4.13;;;16.80;45.90;;;;;;5096660;28;20504;-67
2023/06/15 06:13:54;;;;;;;8.57;4.50;;;16.80;99.90;;;;;;5097182;28;20799;-66
2023/06/15 06:16:21;;;;;;;15.60;12.53;;;16.80;99.90;;;;;;5096692;28;20943;-66
2023/06/15 06:18:49;;;;;;;9.90;4.47;;;16.80;99.90;;;;;;5096022;28;20801;-66
2023/06/15 06:21:16;;;;;;;7.17;3.93;;;16.90;99.90;;;;;;5096134;28;20467;-67
2023/06/15 06:23:43;;;;;;;5.70;5.10;;;16.90;1.00;;;;;;5095961;28;20786;-67
2023/06/15 06:26:10;;;;;;;5.60;3.60;;;16.80;69.30;;;;;;5095703;28;20457;-67
2023/06/15 06:28:37;;;;;;;5.33;4.80;;;16.80;1.00;;;;;;5095884;28;20457;-67
2023/06/15 06:31:05;;;;;;;7.60;4.43;;;16.70;99.90;;;;;;5095657;28;20458;-67
2023/06/15 06:33:32;;;;;;;5.97;4.00;;;16.70;99.90;;;;;;5098253;28;20481;-67
2023/06/15 06:36:00;;;;;;;9.07;4.40;;;16.80;10.20;;;;;;5099095;28;20491;-67
2023/06/15 06:38:27;;;;;;;5.73;4.20;;;16.80;1.00;;;;;;5099986;28;20449;-67
2023/06/15 06:40:55;;;;;;;7.23;4.20;;;16.80;99.90;;;;;;5099523;28;20457;-67
2023/06/15 06:43:21;;;;;;;9.47;5.00;;;16.90;1.00;;;;;;5100483;28;20461;-67
2023/06/15 06:45:48;;;;;;;6.20;4.00;;;16.90;1.00;;;;;;5101032;28;20548;-67
2023/06/15 06:48:15;;;;;;;5.27;4.17;;;16.90;23.60;;;;;;5100688;28;20545;-66
2023/06/15 06:50:42;;;;;;;6.40;4.33;;;17.00;2.50;;;;;;5100470;28;20453;-67
2023/06/15 06:53:11;;;;;;;5.43;4.80;;;17.10;99.90;;;;;;5099460;28;20992;-67
2023/06/15 06:55:38;;;;;;;6.17;4.10;;;17.10;99.90;;;;;;5100328;28;20457;-66
2023/06/15 06:58:05;;;;;;;3.53;3.23;;;17.20;1.00;;;;;;5099697;28;20483;-66
2023/06/15 07:00:32;;;;;;;4.50;4.00;;;17.30;1.00;;;;;;5099186;28;20453;-66
2023/06/15 07:02:59;;;;;;;4.70;4.00;;;17.40;99.90;;;;;;5098912;28;20455;-66
2023/06/15 07:05:26;;;;;;;6.93;4.30;;;17.50;99.90;;;;;;5099141;28;20544;-66
2023/06/15 07:07:53;;;;;;;4.10;3.80;;;17.50;99.90;;;;;;5098690;28;20449;-66
2023/06/15 07:10:21;;;;;;;5.40;4.10;;;17.70;49.40;;;;;;5098873;28;20453;-66
2023/06/15 07:12:48;;;;;;;4.80;3.90;;;17.80;1.00;;;;;;5098839;28;20787;-66
2023/06/15 07:15:15;;;;;;;7.03;5.00;;;17.90;1.00;;;;;;5099131;28;20449;-66
2023/06/15 07:17:42;;;;;;;6.40;4.00;;;17.90;1.00;;;;;;5099405;28;20463;-66
2023/06/15 07:20:09;;;;;;;8.50;5.23;;;18.00;1.00;;;;;;5098613;28;20453;-66
2023/06/15 07:22:36;;;;;;;5.67;3.90;;;18.10;1.00;;;;;;5099073;28;20449;-66
2023/06/15 07:25:03;;;;;;;5.47;3.70;;;18.20;1.00;;;;;;5098721;28;20536;-66
2023/06/15 07:27:31;;;;;;;6.30;5.10;;;18.30;1.00;;;;;;5097991;28;20457;-66
2023/06/15 07:29:58;;;;;;;5.30;3.97;;;18.30;1.00;;;;;;5098507;28;20540;-68
2023/06/15 07:32:25;;;;;;;4.90;4.40;;;18.30;1.00;;;;;;5098107;28;20473;-66
2023/06/15 07:34:51;;;;;;;5.23;3.80;;;18.30;1.00;;;;;;5098232;28;20515;-66
2023/06/15 07:37:18;;;;;;;6.30;4.40;;;18.30;1.00;;;;;;5098266;28;20468;-66
2023/06/15 07:39:45;;;;;;;7.20;4.20;;;18.30;1.00;;;;;;5097904;28;20453;-66
2023/06/15 07:42:12;;;;;;;10.93;4.40;;;18.30;1.00;;;;;;5098077;28;20544;-66
2023/06/15 07:44:40;;;;;;;4.80;4.30;;;18.40;1.00;;;;;;5096758;28;20468;-66
2023/06/15 07:47:07;;;;;;;7.77;5.37;;;18.40;1.00;;;;;;5096968;28;20453;-66
2023/06/15 07:49:34;;;;;;;5.83;5.20;;;18.50;1.00;;;;;;5096829;28;20480;-66
2023/06/15 07:52:01;;;;;;;5.00;4.50;;;18.50;1.00;;;;;;5096775;28;20813;-66
2023/06/15 07:54:28;;;;;;;4.33;3.93;;;18.50;1.00;;;;;;5097002;28;20457;-66
2023/06/15 07:56:55;;;;;;;4.53;4.07;;;18.70;1.00;;;;;;5097163;28;20449;-66
2023/06/15 07:59:22;;;;;;;8.70;5.07;;;18.80;1.00;;;;;;5097015;28;20457;-66
2023/06/15 08:01:50;;;;;;;4.83;4.17;;;18.80;1.00;;;;;;5098112;28;20823;-66
2023/06/15 08:04:17;;;;;;;8.60;4.53;;;18.90;1.00;;;;;;5098341;28;20468;-66
2023/06/15 08:06:44;;;;;;;5.70;4.40;;;18.90;1.00;;;;;;5098706;28;20484;-66
2023/06/15 08:09:12;;;;;;;9.10;8.20;;;19.00;1.00;;;;;;5098278;28;20544;-66
2023/06/15 08:11:39;;;;;;;10.00;4.50;;;19.00;1.00;;;;;;5097934;28;20454;-66
2023/06/15 08:14:06;;;;;;;7.73;4.80;;;19.10;1.00;;;;;;5097405;28;20467;-66
2023/06/15 08:16:33;;;;;;;6.63;5.60;;;19.10;1.00;;;;;;5097783;28;20458;-66
2023/06/15 08:19:01;;;;;;;7.67;4.60;;;19.20;1.00;;;;;;5099059;28;20940;-66
2023/06/15 08:21:28;;;;;;;11.03;6.00;;;19.20;1.00;;;;;;5098030;28;20457;-66
2023/06/15 08:23:55;;;;;;;5.50;4.67;;;19.30;1.00;;;;;;5097407;28;20919;-66
2023/06/15 08:26:21;;;;;;;4.77;4.37;;;19.40;1.00;;;;;;5097108;28;20514;-67
2023/06/15 08:28:48;;;;;;;6.87;4.73;;;19.50;1.00;;;;;;5097379;28;20909;-66
2023/06/15 08:31:15;;;;;;;10.73;4.37;;;19.60;1.00;;;;;;5096431;28;20457;-67
2023/06/15 08:33:42;;;;;;;8.03;4.20;;;19.70;1.00;;;;;;5096163;28;20473;-67
2023/06/15 08:36:11;;;;;;;6.80;4.57;;;19.80;1.00;;;;;;5097006;28;20844;-66
2023/06/15 08:38:37;;;;;;;31.43;24.53;;;19.90;1.00;;;;;;5096408;28;20461;-66
2023/06/15 08:41:05;;;;;;;14.93;6.60;;;20.00;1.00;;;;;;5096200;28;20969;-66
2023/06/15 08:43:34;;;;;;;5.40;4.43;;;20.10;1.00;;;;;;5095730;28;20453;-66
2023/06/15 08:46:02;;;;;;;4.60;4.20;;;20.20;1.00;;;;;;5095714;28;20942;-67
2023/06/15 08:48:33;;;;;;;5.40;4.90;;;20.30;1.00;;;;;;5096088;28;20468;-67
2023/06/15 08:51:00;;;;;;;6.40;4.70;;;20.40;1.00;;;;;;5096133;28;20478;-66
2023/06/15 08:53:30;;;;;;;9.83;5.50;;;20.50;1.00;;;;;;5095733;28;20911;-66
2023/06/15 08:55:57;;;;;;;4.60;4.20;;;20.60;1.00;;;;;;5095461;28;20454;-66
2023/06/15 08:58:23;;;;;;;9.93;7.17;;;20.60;1.00;;;;;;5096076;28;20453;-65
2023/06/15 09:00:54;;;;;;;6.80;4.53;;;20.70;1.00;;;;;;5096943;28;20475;-65
2023/06/15 09:03:23;;;;;;;10.17;4.97;;;20.80;1.00;;;;;;5097162;28;20858;-65
2023/06/15 09:05:50;;;;;;;10.00;5.30;;;20.80;1.00;;;;;;5095726;28;20463;-66
2023/06/15 09:08:16;;;;;;;4.30;3.90;;;20.90;1.00;;;;;;5096397;28;20456;-66
2023/06/15 09:10:45;;;;;;;5.47;4.93;;;21.00;1.00;;;;;;5096654;28;20457;-66
2023/06/15 09:13:17;;;;;;;4.73;4.23;;;21.10;1.00;;;;;;5095893;28;20499;-67
2023/06/15 09:15:50;;;;;;;5.63;5.10;;;21.30;1.00;;;;;;5096283;28;20441;-67
2023/06/15 09:18:17;;;;;;;8.13;5.00;;;21.40;1.00;;;;;;5096106;28;20441;-67
2023/06/15 09:20:44;;;;;;;5.10;4.70;;;21.60;1.00;;;;;;5095634;28;20453;-66
2023/06/15 09:23:13;;;;;;;6.30;4.20;;;21.90;1.00;;;;;;5095782;28;20493;-67
2023/06/15 09:25:41;;;;;;;6.97;4.47;;;22.00;1.00;;;;;;5096075;28;20453;-67
2023/06/15 09:28:09;;;;;;;5.73;4.00;;;22.20;1.00;;;;;;5095907;28;20453;-66
2023/06/15 09:30:37;;;;;;;6.83;4.70;;;22.20;1.00;;;;;;5095734;28;20941;-67
2023/06/15 09:33:15;;;;;;;7.63;4.63;;;22.30;1.00;;;;;;5096234;28;20477;-66
2023/06/15 09:35:59;;;;;;;6.90;4.87;;;22.40;1.00;;;;;;5096664;28;20788;-66
2023/06/15 09:38:27;;;;;;;5.50;4.57;;;22.40;1.00;;;;;;5096395;28;20461;-66
2023/06/15 09:40:54;;;;;;;6.83;5.40;;;22.50;1.00;;;;;;5095504;28;20536;-67
2023/06/15 09:43:23;;;;;;;4.83;4.17;;;22.50;1.00;;;;;;5094720;28;20463;-67
2023/06/15 09:45:50;;;;;;;8.00;5.60;;;22.50;1.00;;;;;;5095649;28;20452;-67
2023/06/15 09:48:17;;;;;;;6.13;4.60;;;22.60;1.00;;;;;;5095653;28;20468;-67
2023/06/15 09:50:44;;;;;;;9.03;5.60;;;22.60;1.00;;;;;;5095486;28;20909;-67
2023/06/15 09:53:13;;;;;;;4.87;4.37;;;22.60;1.00;;;;;;5095507;28;20476;-66
2023/06/15 09:55:43;;;;;;;12.30;4.90;;;22.70;1.00;;;;;;5095764;28;20453;-66
2023/06/15 09:58:10;;;;;;;6.07;4.40;;;22.70;1.00;;;;;;5095738;28;20788;-66
2023/06/15 10:00:38;;;;;;;6.63;4.70;;;22.70;1.00;;;;;;5096072;28;20536;-67
2023/06/15 10:03:06;;;;;;;5.70;5.20;;;22.70;1.00;;;;;;5096099;28;20933;-66
2023/06/15 10:05:35;;;;;;;7.07;6.37;;;22.70;1.00;;;;;;5095731;28;20498;-66
2023/06/15 10:08:05;;;;;;;7.70;5.23;;;22.70;1.00;;;;;;5097695;28;20795;-66
2023/06/15 10:10:36;;;;;;;11.90;5.20;;;22.70;1.00;;;;;;5099707;28;20460;-67
2023/06/15 10:13:06;;;;;;;9.30;5.43;;;22.70;1.00;;;;;;5099482;28;20827;-67
2023/06/15 10:15:34;;;;;;;7.50;4.20;;;22.70;1.00;;;;;;5100711;28;20525;-66
2023/06/15 10:18:05;;;;;;;5.57;4.60;;;22.70;1.00;;;;;;5100887;28;20457;-66
2023/06/15 10:20:33;;;;;;;4.73;3.83;;;22.60;1.00;;;;;;5101139;28;20502;-67
2023/06/15 10:23:04;;;;;;;5.20;4.70;;;22.60;1.00;;;;;;5101917;28;20567;-66
2023/06/15 10:25:31;;;;;;;5.87;4.80;;;22.50;1.00;;;;;;5101880;28;20458;-66
2023/06/15 10:28:02;;;;;;;8.57;7.60;;;22.50;1.00;;;;;;5102116;28;20468;-66
2023/06/15 10:30:37;;;;;;;4.47;3.87;;;22.40;1.00;;;;;;5102151;28;20532;-66
2023/06/15 10:33:20;;;;;;;7.47;6.17;;;22.40;1.00;;;;;;5102095;28;20461;-66
2023/06/15 10:35:54;;;;;;;14.23;11.40;;;22.30;1.00;;;;;;5102379;28;20441;-66
2023/06/15 10:38:30;;;;;;;5.07;4.10;;;22.20;1.00;;;;;;5102738;28;20449;-66
2023/06/15 10:40:57;;;;;;;7.73;3.50;;;22.20;1.00;;;;;;5102380;28;20504;-66
2023/06/15 10:43:27;;;;;;;7.53;6.87;;;22.10;1.00;;;;;;5101649;28;20459;-66
2023/06/15 10:45:54;;;;;;;9.13;4.03;;;22.10;1.00;;;;;;5101089;28;20457;-66
2023/06/15 10:48:23;;;;;;;5.13;4.10;;;22.10;1.00;;;;;;5100474;28;20774;-66
2023/06/15 10:50:51;;;;;;;4.33;3.93;;;22.00;1.00;;;;;;5097101;28;20457;-66
2023/06/15 10:53:23;;;;;;;5.53;3.90;;;22.00;1.00;;;;;;5096962;28;20480;-66
2023/06/15 10:55:53;;;;;;;3.70;3.40;;;22.00;1.00;;;;;;5096760;28;20528;-66
2023/06/15 10:58:20;;;;;;;5.40;3.40;;;21.90;1.00;;;;;;5096633;28;20468;-65
2023/06/15 11:01:05;;;;;;;6.60;3.23;;;21.90;1.00;;;;;;5096401;28;20511;-65
2023/06/15 11:03:34;;;;;;;4.20;3.80;;;21.80;1.00;;;;;;5096965;28;20441;-66
2023/06/15 11:06:03;;;;;;;5.63;3.37;;;21.80;1.00;;;;;;5096652;28;20458;-66
2023/06/15 11:08:41;;;;;;;4.00;3.70;;;21.80;1.00;;;;;;5096458;28;20457;-65
2023/06/15 11:11:11;;;;;;;5.43;3.90;;;21.80;1.00;;;;;;5096291;28;20441;-66
2023/06/15 11:13:55;;;;;;;7.00;5.93;;;21.80;1.00;;;;;;5096536;28;20855;-66
2023/06/15 11:16:26;;;;;;;10.07;3.70;;;21.80;1.00;;;;;;5096680;28;20437;-66
2023/06/15 11:19:15;;;;;;;3.67;3.37;;;21.80;1.00;;;;;;5096476;28;20442;-66
2023/06/15 11:21:44;;;;;;;3.60;3.30;;;21.90;1.00;;;;;;5096043;28;20461;-66
2023/06/15 11:24:13;;;;;;;5.53;4.43;;;21.80;1.00;;;;;;5096492;28;20527;-66
2023/06/15 11:26:41;;;;;;;7.73;6.20;;;21.80;1.00;;;;;;5096009;28;20491;-65
2023/06/15 11:29:09;;;;;;;4.77;4.27;;;21.80;1.00;;;;;;5095866;28;20480;-66
2023/06/15 11:31:36;;;;;;;6.53;3.93;;;21.90;1.00;;;;;;5096951;28;20766;-66
2023/06/15 11:34:04;;;;;;;5.20;3.30;;;21.90;1.00;;;;;;5096306;28;20473;-66
2023/06/15 11:36:31;;;;;;;6.73;3.80;;;22.00;1.00;;;;;;5096319;28;20499;-66
2023/06/15 11:38:58;;;;;;;5.00;3.67;;;22.10;1.00;;;;;;5096130;28;20458;-65
2023/06/15 11:41:26;;;;;;;4.17;3.80;;;22.30;1.00;;;;;;5096328;28;20453;-66
2023/06/15 11:43:55;;;;;;;7.30;3.93;;;22.40;1.00;;;;;;5095954;28;20496;-66
2023/06/15 11:46:25;;;;;;;3.83;3.47;;;22.40;1.00;;;;;;5095960;28;20921;-66
2023/06/15 11:48:57;;;;;;;4.30;3.90;;;22.40;1.00;;;;;;5096056;28;20459;-66
2023/06/15 11:51:25;;;;;;;4.33;3.70;;;22.40;1.00;;;;;;5095941;28;20842;-66
2023/06/15 11:53:53;;;;;;;6.30;4.27;;;22.30;1.00;;;;;;5096028;28;20983;-66
2023/06/15 11:56:21;;;;;;;7.47;3.77;;;22.60;1.00;;;;;;5095529;28;20544;-66
2023/06/15 11:58:49;;;;;;;6.50;3.50;;;23.60;1.00;;;;;;5095624;28;20464;-66
2023/06/15 12:01:17;;;;;;;4.90;3.23;;;24.90;1.00;;;;;;5095418;28;20801;-66
2023/06/15 12:03:45;;;;;;;4.83;4.30;;;26.20;1.00;;;;;;5095089;28;20485;-64
2023/06/15 12:06:16;;;;;;;18.73;16.80;;;27.30;1.00;;;;;;5095438;28;20480;-66
2023/06/15 12:08:46;;;;;;;5.60;3.93;;;27.90;1.00;;;;;;5095287;28;20448;-66
2023/06/15 12:11:13;;;;;;;5.90;3.97;;;28.80;1.00;;;;;;5095128;28;20560;-65
2023/06/15 12:13:40;;;;;;;3.60;3.30;;;29.60;1.00;;;;;;5094928;28;20884;-65
2023/06/15 12:16:07;;;;;;;4.63;3.73;;;30.10;1.00;;;;;;5095612;28;20453;-65
2023/06/15 12:18:34;;;;;;;4.47;3.30;;;30.50;1.00;;;;;;5095546;28;20457;-66
2023/06/15 12:21:03;;;;;;;4.37;3.97;;;30.70;1.00;;;;;;5095090;28;20546;-65
2023/06/15 12:23:31;;;;;;;4.20;3.77;;;30.20;1.00;;;;;;5095335;28;20781;-65
2023/06/15 12:26:01;;;;;;;4.67;3.53;;;29.30;1.00;;;;;;5095169;28;20459;-65
2023/06/15 12:28:31;;;;;;;3.70;3.40;;;28.40;1.00;;;;;;5095134;28;20544;-65
2023/06/15 12:31:02;;;;;;;4.63;4.10;;;27.50;1.00;;;;;;5094397;28;20543;-66
2023/06/15 12:33:31;;;;;;;8.40;6.67;;;26.70;1.00;;;;;;5095534;28;20481;-65
2023/06/15 12:35:59;;;;;;;10.20;8.43;;;26.10;1.00;;;;;;5095110;28;20497;-66
2023/06/15 12:38:27;;;;;;;5.60;4.10;;;25.60;1.00;;;;;;5094971;28;20454;-65
2023/06/15 12:40:55;;;;;;;6.40;3.67;;;25.20;1.00;;;;;;5094302;28;20475;-65
2023/06/15 12:43:26;;;;;;;4.60;2.97;;;24.90;1.00;;;;;;5095034;28;20791;-66
2023/06/15 12:45:54;;;;;;;4.07;3.23;;;24.70;1.00;;;;;;5094540;28;20514;-65
2023/06/15 12:48:22;;;;;;;3.53;3.23;;;24.40;1.00;;;;;;5094874;28;20454;-65
2023/06/15 12:50:50;;;;;;;4.40;3.33;;;24.00;1.00;;;;;;5094204;28;20518;-65
2023/06/15 12:53:18;;;;;;;5.17;3.10;;;23.70;1.00;;;;;;5094645;28;20851;-65
2023/06/15 12:55:45;;;;;;;4.67;3.20;;;23.50;1.00;;;;;;5094476;28;20458;-65
2023/06/15 12:58:12;;;;;;;4.93;4.43;;;23.30;1.00;;;;;;5094208;28;20828;-65
2023/06/15 13:00:40;;;;;;;6.23;3.47;;;23.20;1.00;;;;;;5094112;28;20940;-65